Time;durP1;ratioP1;P1;durP2;ratioP2;P2;SDS_P1;SDS_P2;PMS_P1;PMS_P2;Temp;Humidity;BMP_temperature;BMP_pressure;BME280_temperature;BME280_humidity;BME280_pressure;Samples;Min_cycle;Max_cycle;Signal;HPM_P1;HPM_P2
2022/01/13 00:02:04;;;;;;;4.93;3.25;;;;;;;-5.84;63.90;94591.50;5114152;28;20420;-42
2022/01/13 00:04:30;;;;;;;5.00;3.33;;;;;;;-5.96;63.93;94598.28;5114397;28;20028;-42
2022/01/13 00:06:56;;;;;;;7.95;3.20;;;;;;;-5.85;63.45;94598.84;5114075;28;20031;-42
2022/01/13 00:09:22;;;;;;;6.90;4.28;;;;;;;-5.75;63.09;94597.06;5114006;27;20118;-42
2022/01/13 00:11:49;;;;;;;5.80;3.90;;;;;;;-5.74;61.72;94583.19;5113999;28;20154;-41
2022/01/13 00:16:44;;;;;;;9.07;4.53;;;;;;;-5.77;63.65;94615.53;5098204;28;20067;-41
2022/01/13 00:21:49;;;;;;;11.10;6.85;;;;;;;-6.16;65.27;94616.34;5093749;28;20474;-42
2022/01/13 00:24:15;;;;;;;12.43;6.90;;;;;;;-5.97;65.64;94618.28;5108663;28;20042;-42
2022/01/13 00:26:42;;;;;;;11.80;6.68;;;;;;;-6.04;64.96;94615.72;5113986;28;20028;-42
2022/01/13 00:29:08;;;;;;;13.70;7.75;;;;;;;-6.07;64.43;94621.94;5113500;28;20031;-42
2022/01/13 00:31:38;;;;;;;14.20;6.97;;;;;;;-6.26;65.36;94622.69;5113649;28;20100;-41
2022/01/13 00:34:05;;;;;;;8.48;4.82;;;;;;;-6.37;66.40;94624.81;5113869;28;20351;-41
2022/01/13 00:36:37;;;;;;;6.43;4.57;;;;;;;-6.18;65.29;94630.22;5112551;28;20031;-42
2022/01/13 00:39:07;;;;;;;9.52;5.50;;;;;;;-6.12;64.79;94627.03;5113818;28;20027;-41
2022/01/13 00:41:33;;;;;;;11.93;5.43;;;;;;;-6.17;63.94;94593.31;5113379;28;20032;-42
2022/01/13 00:44:00;;;;;;;7.15;4.45;;;;;;;-5.96;64.10;94625.19;5113294;28;20034;-41
2022/01/13 00:46:30;;;;;;;9.52;4.47;;;;;;;-5.94;64.39;94635.50;5113321;28;20486;-41
2022/01/13 00:48:56;;;;;;;5.63;3.58;;;;;;;-6.13;64.14;94610.16;5113201;28;20539;-42
2022/01/13 00:51:23;;;;;;;6.40;3.58;;;;;;;-5.86;64.61;94644.94;5113285;28;20046;-42
2022/01/13 00:53:49;;;;;;;7.20;4.00;;;;;;;-5.74;65.38;94641.63;5113450;28;20394;-42
2022/01/13 00:56:15;;;;;;;11.05;5.38;;;;;;;-5.68;65.39;94632.63;5112566;28;20039;-43
2022/01/13 00:58:41;;;;;;;6.30;3.55;;;;;;;-5.77;63.78;94637.81;5113139;27;20107;-41
2022/01/13 01:01:07;;;;;;;5.95;3.25;;;;;;;-5.88;63.53;94639.22;5113425;28;20032;-41
2022/01/13 01:03:33;;;;;;;5.82;2.92;;;;;;;-5.79;64.29;94637.47;5113362;28;20115;-41
2022/01/13 01:06:01;;;;;;;5.38;3.08;;;;;;;-5.76;62.83;94641.28;5113221;28;20019;-41
2022/01/13 01:08:26;;;;;;;4.82;2.67;;;;;;;-5.70;62.21;94640.38;5112898;28;20086;-41
2022/01/13 01:10:54;;;;;;;4.35;2.45;;;;;;;-5.58;62.64;94647.03;5113130;28;20047;-42
2022/01/13 01:13:25;;;;;;;5.15;2.78;;;;;;;-5.67;62.06;94650.28;5112836;28;20106;-42
2022/01/13 01:15:54;;;;;;;7.20;4.03;;;;;;;-5.59;63.32;94646.25;5104638;28;20198;-41
2022/01/13 01:28:59;;;;;;;5.63;3.50;;;;;;;-5.62;64.43;94639.03;5092407;28;20073;-41
2022/01/13 01:31:31;;;;;;;4.80;3.33;;;;;;;-5.48;63.97;94641.41;5092510;28;20497;-42
2022/01/13 01:34:17;;;;;;;5.90;3.25;;;;;;;-5.51;64.21;94653.03;5092102;28;20031;-42
2022/01/13 01:36:44;;;;;;;8.25;4.90;;;;;;;-5.42;64.36;94652.47;5092001;28;20562;-41
2022/01/13 01:39:10;;;;;;;11.82;4.95;;;;;;;-5.38;64.33;94650.44;5092168;28;20031;-42
2022/01/13 01:41:38;;;;;;;11.15;5.35;;;;;;;-5.45;64.62;94651.34;5091891;28;20035;-42
2022/01/13 01:44:09;;;;;;;9.55;5.07;;;;;;;-5.46;65.71;94646.41;5092164;28;20031;-41
2022/01/13 01:46:39;;;;;;;7.00;4.45;;;;;;;-5.47;65.64;94642.19;5091883;28;20028;-42
2022/01/13 01:49:15;;;;;;;9.52;4.68;;;;;;;-5.54;66.35;94647.72;5091964;28;20416;-41
2022/01/13 01:51:46;;;;;;;7.72;3.90;;;;;;;-5.52;65.29;94650.75;5091713;28;20497;-41
2022/01/13 01:54:12;;;;;;;5.45;3.70;;;;;;;-5.50;65.31;94653.78;5091659;28;20036;-42
2022/01/13 01:56:38;;;;;;;7.40;4.32;;;;;;;-5.48;65.15;94646.06;5091588;28;20030;-42
2022/01/13 01:59:10;;;;;;;9.93;4.85;;;;;;;-5.47;65.04;94636.81;5091821;28;20027;-41
2022/01/13 02:01:36;;;;;;;6.25;3.47;;;;;;;-5.42;64.60;94639.00;5091491;28;20024;-41
2022/01/13 02:04:01;;;;;;;9.15;4.75;;;;;;;-5.40;65.64;94637.41;5091637;28;20035;-42
2022/01/13 02:06:27;;;;;;;11.02;4.18;;;;;;;-5.46;65.87;94639.06;5091683;28;20468;-42
2022/01/13 02:08:53;;;;;;;6.18;4.10;;;;;;;-5.43;66.06;94637.47;5090679;28;20028;-42
2022/01/13 02:11:18;;;;;;;7.10;4.07;;;;;;;-5.39;66.75;94635.47;5091229;28;20409;-42
2022/01/13 02:13:50;;;;;;;7.28;4.38;;;;;;;-5.44;66.64;94630.59;5090084;28;20059;-42
2022/01/13 02:16:37;;;;;;;9.25;4.95;;;;;;;-5.50;67.23;94614.16;5094382;28;20043;-42
2022/01/13 02:19:02;;;;;;;9.38;4.60;;;;;;;-5.49;67.46;94617.63;5091007;28;20048;-42
2022/01/13 02:21:28;;;;;;;10.43;4.53;;;;;;;-5.55;68.11;94616.63;5091169;28;20107;-41
2022/01/13 02:23:57;;;;;;;7.88;4.40;;;;;;;-5.69;69.06;94606.13;5091080;28;20102;-42
2022/01/13 02:26:22;;;;;;;;;;;;;;;-5.60;69.09;94623.25;5091664;28;20107;-42
2022/01/13 02:28:49;;;;;;;6.53;4.47;;;;;;;-5.63;68.81;94616.00;5091235;28;19990;-42
2022/01/13 02:31:14;;;;;;;11.07;5.18;;;;;;;-5.61;69.07;94615.59;5090946;28;20023;-42
2022/01/13 02:33:40;;;;;;;10.63;5.68;;;;;;;-5.50;68.53;94606.09;5090883;28;20032;-42
2022/01/13 02:36:07;;;;;;;10.18;4.80;;;;;;;-5.55;70.15;94609.31;5090860;28;20027;-42
2022/01/13 02:38:33;;;;;;;12.32;6.05;;;;;;;-5.52;68.54;94613.84;5091087;28;20054;-42
2022/01/13 02:40:59;;;;;;;10.32;4.85;;;;;;;-5.50;67.55;94624.19;5090829;28;20078;-44
2022/01/13 02:43:26;;;;;;;8.13;3.65;;;;;;;-5.55;69.21;94630.06;5090815;28;20450;-42
2022/01/13 02:46:18;;;;;;;8.80;4.97;;;;;;;-5.45;69.39;94629.06;5090688;28;20016;-42
2022/01/13 02:48:45;;;;;;;11.05;5.80;;;;;;;-5.45;69.09;94637.13;5090929;28;20020;-42
2022/01/13 02:51:11;;;;;;;8.00;4.60;;;;;;;-5.54;70.67;94636.94;5090695;28;20059;-42
2022/01/13 02:53:36;;;;;;;8.90;4.85;;;;;;;-5.53;71.67;94627.72;5090645;28;20020;-42
2022/01/13 02:56:05;;;;;;;15.68;9.30;;;;;;;-5.66;72.40;94629.53;5090834;28;20027;-42
2022/01/13 02:58:34;;;;;;;8.30;4.50;;;;;;;-5.64;70.61;94636.00;5090562;28;20020;-42
2022/01/13 03:01:00;;;;;;;15.88;7.93;;;;;;;-5.62;71.05;94630.22;5090455;28;20038;-42
2022/01/13 03:03:27;;;;;;;11.02;5.88;;;;;;;-5.62;73.40;94630.97;5090587;28;20027;-41
2022/01/13 03:05:53;;;;;;;17.77;8.38;;;;;;;-5.55;74.19;94628.13;5090716;28;20020;-41
2022/01/13 03:08:18;;;;;;;15.02;7.47;;;;;;;-5.58;75.43;94628.19;5090403;28;20038;-42
2022/01/13 03:10:44;;;;;;;17.20;9.25;;;;;;;-5.61;76.02;94620.97;5090527;28;20016;-41
2022/01/13 03:13:10;;;;;;;12.98;6.95;;;;;;;-5.61;75.71;94623.66;5106873;28;20023;-42
2022/01/13 03:15:35;;;;;;;13.52;6.65;;;;;;;-5.62;76.40;94635.59;5106682;28;20035;-42
2022/01/13 03:18:01;;;;;;;12.43;7.30;;;;;;;-5.65;76.55;94625.69;5110405;28;20512;-42
2022/01/13 03:20:27;;;;;;;14.73;6.95;;;;;;;-5.60;76.61;94630.53;5110697;28;20024;-42
2022/01/13 03:22:52;;;;;;;15.43;7.38;;;;;;;-5.50;77.01;94646.47;5110953;28;20019;-42
2022/01/13 03:25:22;;;;;;;16.55;7.50;;;;;;;-5.42;76.27;94639.78;5110966;28;20047;-42
2022/01/13 03:28:04;;;;;;;13.10;7.70;;;;;;;-5.38;76.07;94647.75;5111173;28;20024;-42
2022/01/13 03:30:30;;;;;;;12.82;6.82;;;;;;;-5.45;76.45;94637.13;5110545;28;20034;-42
2022/01/13 03:32:56;;;;;;;14.93;8.25;;;;;;;-5.45;76.50;94645.22;5110888;28;20525;-42
2022/01/13 03:35:21;;;;;;;18.58;7.43;;;;;;;-5.40;76.82;94648.19;5110535;28;20151;-41
2022/01/13 03:37:47;;;;;;;16.13;8.90;;;;;;;-5.33;76.21;94641.13;5110520;28;20039;-42
2022/01/13 03:40:13;;;;;;;18.25;8.30;;;;;;;-5.33;75.79;94641.88;5109556;28;20431;-42
2022/01/13 03:42:38;;;;;;;18.90;8.60;;;;;;;-5.32;75.63;94648.78;5110414;28;20475;-41
2022/01/13 03:45:05;;;;;;;14.30;7.35;;;;;;;-5.33;75.80;94651.88;5110744;28;20023;-42
2022/01/13 03:47:30;;;;;;;17.20;8.55;;;;;;;-5.31;75.73;94644.16;5110260;28;20496;-42
2022/01/13 03:49:56;;;;;;;17.15;9.55;;;;;;;-5.40;76.01;94637.41;5110400;28;20028;-42
2022/01/13 03:52:24;;;;;;;19.10;8.15;;;;;;;-5.31;75.56;94639.53;5110586;28;20032;-44
2022/01/13 03:55:17;;;;;;;19.98;8.52;;;;;;;-5.28;75.43;94638.69;5110278;28;20119;-42
2022/01/13 03:58:01;;;;;;;18.38;7.68;;;;;;;-5.31;75.22;94647.63;5110613;28;20419;-42
2022/01/13 04:00:46;;;;;;;17.20;7.68;;;;;;;-5.21;74.99;94638.53;5110327;28;20031;-42
2022/01/13 04:03:12;;;;;;;14.35;6.47;;;;;;;-5.20;74.52;94634.69;5110525;28;20104;-42
2022/01/13 04:06:02;;;;;;;14.95;7.15;;;;;;;-5.21;74.01;94630.47;5110199;28;20512;-42
2022/01/13 04:08:29;;;;;;;17.42;7.03;;;;;;;-5.20;74.13;94640.06;5101472;28;20170;-42
2022/01/13 04:11:04;;;;;;;16.80;7.97;;;;;;;-5.23;74.17;94634.75;5090127;28;20054;-42
2022/01/13 04:13:46;;;;;;;13.20;6.47;;;;;;;-5.25;73.38;94637.09;5090079;28;20511;-42
2022/01/13 04:16:18;;;;;;;11.38;6.30;;;;;;;-5.28;73.25;94646.75;5093097;28;20401;-41
2022/01/13 04:18:49;;;;;;;16.25;7.93;;;;;;;-5.31;73.67;94636.84;5089542;28;20067;-42
2022/01/13 04:21:17;;;;;;;12.55;6.25;;;;;;;-5.31;73.55;94652.22;5090037;28;20028;-41
2022/01/13 04:23:42;;;;;;;16.63;7.00;;;;;;;-5.31;72.98;94649.53;5088454;28;20520;-42
2022/01/13 04:26:08;;;;;;;11.52;6.88;;;;;;;-5.25;73.43;94653.25;5089869;28;20028;-42
2022/01/13 04:28:35;;;;;;;15.10;7.88;;;;;;;-5.34;73.79;94664.59;5089617;28;20028;-42
2022/01/13 04:31:01;;;;;;;13.38;7.70;;;;;;;-5.35;73.87;94660.41;5090327;28;20024;-41
2022/01/13 04:33:30;;;;;;;15.07;7.65;;;;;;;-5.30;73.83;94665.25;5093289;28;20081;-42
2022/01/13 04:35:57;;;;;;;17.15;8.38;;;;;;;-5.24;73.65;94674.34;5093234;28;20016;-42
2022/01/13 04:38:22;;;;;;;14.73;7.38;;;;;;;-5.29;73.31;94672.16;5093085;28;20044;-42
2022/01/13 04:40:54;;;;;;;14.77;9.40;;;;;;;-5.64;73.76;94660.22;5093443;28;20107;-42
2022/01/13 04:43:20;;;;;;;34.20;14.27;;;;;;;-5.58;73.44;94679.31;5093399;28;20267;-42
2022/01/13 04:45:47;;;;;;;30.90;13.65;;;;;;;-5.58;73.11;94661.25;5093415;28;20076;-42
2022/01/13 04:48:13;;;;;;;25.45;10.73;;;;;;;-5.57;72.80;94678.91;5093176;28;20108;-42
2022/01/13 04:50:39;;;;;;;19.25;10.30;;;;;;;-5.48;72.38;94678.34;5092997;28;20098;-42
2022/01/13 04:53:05;;;;;;;20.63;9.27;;;;;;;-5.52;72.35;94677.66;5093217;28;20382;-42
2022/01/13 04:55:32;;;;;;;15.43;8.18;;;;;;;-5.52;72.43;94667.66;5092739;28;20022;-41
2022/01/13 04:58:01;;;;;;;17.48;8.95;;;;;;;-5.64;71.83;94662.16;5092909;28;20081;-42
2022/01/13 05:00:26;;;;;;;20.65;8.82;;;;;;;-5.68;72.24;94661.47;5092788;28;20080;-42
2022/01/13 05:02:52;;;;;;;15.75;9.02;;;;;;;-5.65;71.89;94666.75;5092885;28;20043;-42
2022/01/13 05:05:17;;;;;;;17.77;9.30;;;;;;;-5.60;70.95;94674.34;5106192;28;20527;-42
2022/01/13 05:07:43;;;;;;;16.17;8.10;;;;;;;-5.92;71.06;94641.22;5113142;28;20072;-42
2022/01/13 05:10:09;;;;;;;17.75;9.02;;;;;;;-5.66;72.27;94664.50;5112952;28;20034;-41
2022/01/13 05:12:41;;;;;;;16.95;8.20;;;;;;;-5.78;72.80;94665.88;5112874;28;20024;-41
2022/01/13 05:15:09;;;;;;;20.63;9.63;;;;;;;-5.76;72.59;94668.16;5112295;28;20019;-41
2022/01/13 05:18:24;;;;;;;13.90;7.75;;;;;;;-5.86;72.40;94679.91;5112668;28;20044;-42
2022/01/13 05:20:26;;;;;;;15.07;8.27;;;;;;;-6.02;72.89;94690.59;5108570;28;20114;-41
2022/01/13 05:22:52;;;;;;;19.50;10.43;;;;;;;-6.06;73.67;94687.22;5112950;28;20016;-41
2022/01/13 05:25:19;;;;;;;23.30;10.60;;;;;;;-6.10;74.21;94687.28;5112638;28;20480;-41
2022/01/13 05:27:45;;;;;;;16.27;9.45;;;;;;;-6.14;72.66;94680.44;5112560;28;20561;-41
2022/01/13 05:30:15;;;;;;;31.17;13.18;;;;;;;-6.25;73.96;94686.00;5112766;28;20028;-42
2022/01/13 05:32:40;;;;;;;27.05;11.95;;;;;;;-6.17;73.95;94698.91;5112776;28;20027;-41
2022/01/13 05:35:06;;;;;;;23.98;10.57;;;;;;;-6.10;74.22;94702.63;5112777;28;20481;-41
2022/01/13 05:37:32;;;;;;;21.35;11.10;;;;;;;-6.14;74.62;94708.09;5112675;28;20508;-42
2022/01/13 05:39:58;;;;;;;20.63;10.38;;;;;;;-6.14;75.26;94701.94;5112749;28;20030;-41
2022/01/13 05:42:23;;;;;;;17.95;9.82;;;;;;;-6.13;75.56;94708.84;5112429;28;20023;-41
2022/01/13 05:44:49;;;;;;;22.42;9.50;;;;;;;-6.13;75.33;94709.63;5112574;28;20081;-42
2022/01/13 05:47:16;;;;;;;27.98;15.48;;;;;;;-6.02;75.77;94714.78;5112247;28;20023;-42
2022/01/13 05:49:42;;;;;;;23.75;11.63;;;;;;;-5.98;75.04;94718.16;5112311;28;20070;-41
2022/01/13 05:52:12;;;;;;;21.48;9.85;;;;;;;-6.09;74.40;94720.28;5112381;28;20055;-41
2022/01/13 05:54:38;;;;;;;20.38;10.20;;;;;;;-6.04;74.84;94717.88;5112399;28;20047;-42
2022/01/13 05:57:04;;;;;;;23.08;11.77;;;;;;;-6.07;74.49;94710.66;5112185;28;20045;-42
2022/01/13 05:59:29;;;;;;;15.02;7.78;;;;;;;-6.04;73.82;94720.56;5112004;28;20173;-41
2022/01/13 06:01:55;;;;;;;21.67;10.63;;;;;;;-6.00;74.04;94729.34;5094942;28;20035;-41
2022/01/13 06:04:21;;;;;;;21.80;10.93;;;;;;;-6.02;74.50;94722.84;5091481;28;20024;-41
2022/01/13 06:06:46;;;;;;;17.48;9.50;;;;;;;-6.04;75.00;94728.63;5091753;28;20051;-42
2022/01/13 06:09:12;;;;;;;23.75;10.75;;;;;;;-5.94;74.89;94743.06;5091514;28;20099;-41
2022/01/13 06:11:38;;;;;;;18.58;8.30;;;;;;;-5.86;75.00;94737.13;5091488;28;20043;-41
2022/01/13 06:14:05;;;;;;;14.70;8.52;;;;;;;-5.76;75.13;94738.84;5091467;28;20034;-41
2022/01/13 06:16:30;;;;;;;18.13;8.48;;;;;;;-5.59;74.41;94734.31;5094129;28;20459;-41
2022/01/13 06:18:56;;;;;;;23.23;10.82;;;;;;;-5.59;74.73;94726.22;5091581;28;20028;-41
2022/01/13 06:21:21;;;;;;;16.13;8.88;;;;;;;-5.45;74.94;94732.09;5091214;28;20741;-42
2022/01/13 06:23:47;;;;;;;24.25;10.80;;;;;;;-5.25;74.19;94731.31;5091538;28;20016;-41
2022/01/13 06:26:12;;;;;;;19.20;10.10;;;;;;;-5.09;73.11;94737.47;5091036;28;20505;-42
2022/01/13 06:28:38;;;;;;;19.73;9.18;;;;;;;-5.09;72.38;94745.56;5090992;28;20051;-41
2022/01/13 06:31:03;;;;;;;24.88;12.88;;;;;;;-5.10;72.15;94743.28;5091214;28;20061;-42
2022/01/13 06:33:29;;;;;;;26.90;10.77;;;;;;;-5.05;72.84;94742.81;5091005;28;20093;-42
2022/01/13 06:35:55;;;;;;;21.70;10.88;;;;;;;-4.96;72.63;94743.00;5091271;28;20117;-42
2022/01/13 06:38:21;;;;;;;18.35;8.77;;;;;;;-4.93;72.80;94745.59;5090876;28;20012;-42
2022/01/13 06:40:47;;;;;;;22.95;10.55;;;;;;;-4.81;72.90;94744.94;5091220;28;20020;-42
2022/01/13 06:43:13;;;;;;;21.35;10.73;;;;;;;-4.74;73.13;94741.34;5091047;28;20089;-42
2022/01/13 06:45:40;;;;;;;28.58;12.80;;;;;;;-4.76;72.64;94735.59;5091158;28;20520;-41
2022/01/13 06:48:05;;;;;;;34.88;14.32;;;;;;;-4.62;72.46;94746.84;5090619;28;20024;-41
2022/01/13 06:50:31;;;;;;;19.77;9.93;;;;;;;-4.45;71.77;94753.00;5090683;28;20092;-42
2022/01/13 06:52:56;;;;;;;17.60;9.82;;;;;;;-4.35;71.15;94751.22;5090731;28;20026;-42
2022/01/13 06:55:22;;;;;;;21.10;9.02;;;;;;;-4.38;71.10;94747.44;5090066;28;20056;-42
2022/01/13 06:57:47;;;;;;;20.33;9.38;;;;;;;-4.35;71.45;94759.31;5104203;28;20019;-41
2022/01/13 07:00:14;;;;;;;15.38;9.02;;;;;;;-4.25;69.71;94769.84;5110891;28;20024;-41
2022/01/13 07:02:40;;;;;;;21.40;11.23;;;;;;;-4.30;70.38;94753.41;5110898;28;20500;-42
2022/01/13 07:05:06;;;;;;;20.75;9.50;;;;;;;-4.18;70.00;94771.63;5111200;28;20016;-41
2022/01/13 07:07:35;;;;;;;26.95;10.63;;;;;;;-4.18;70.29;94777.75;5110986;28;20022;-41
2022/01/13 07:10:01;;;;;;;21.70;9.95;;;;;;;-4.08;69.93;94778.69;5110767;28;20023;-42
2022/01/13 07:12:27;;;;;;;23.75;11.32;;;;;;;-4.10;69.70;94781.81;5110819;28;20025;-40
2022/01/13 07:14:52;;;;;;;24.58;10.38;;;;;;;-4.04;69.52;94788.22;5110895;28;20083;-41
2022/01/13 07:17:17;;;;;;;23.05;11.82;;;;;;;-3.95;69.09;94793.78;5090143;28;20141;-40
2022/01/13 07:19:45;;;;;;;21.40;10.13;;;;;;;-3.87;68.13;94787.00;5090309;28;20024;-40
2022/01/13 07:22:11;;;;;;;19.45;9.88;;;;;;;-3.80;67.84;94791.47;5090552;28;20111;-40
2022/01/13 07:24:36;;;;;;;19.52;9.65;;;;;;;-3.96;67.45;94770.66;5089073;28;20095;-40
2022/01/13 07:27:02;;;;;;;23.33;11.20;;;;;;;-3.80;68.35;94802.25;5090569;28;20065;-41
2022/01/13 07:29:27;;;;;;;25.48;14.15;;;;;;;-3.76;67.82;94810.25;5090558;28;20498;-41
2022/01/13 07:31:53;;;;;;;17.40;9.50;;;;;;;-3.69;67.25;94808.16;5090431;28;20484;-41
2022/01/13 07:34:19;;;;;;;18.77;10.35;;;;;;;-3.76;66.86;94807.56;5090560;28;20035;-40
2022/01/13 07:36:44;;;;;;;22.80;12.60;;;;;;;-3.79;66.62;94817.28;5090450;28;20485;-41
2022/01/13 07:39:10;;;;;;;19.92;10.80;;;;;;;-3.65;67.59;94814.22;5090413;28;20024;-40
2022/01/13 07:41:39;;;;;;;23.88;9.82;;;;;;;-3.82;67.54;94815.41;5090166;28;20028;-40
2022/01/13 07:44:06;;;;;;;;;;;;;;;-3.81;67.42;94814.22;5090914;28;20394;-40
2022/01/13 07:46:31;;;;;;;21.48;9.30;;;;;;;-3.78;66.58;94804.53;5090075;28;19968;-40
2022/01/13 07:48:57;;;;;;;18.48;9.23;;;;;;;-3.62;66.65;94813.38;5089991;28;20020;-40
2022/01/13 07:51:22;;;;;;;21.08;12.13;;;;;;;-3.45;65.67;94819.50;5090595;28;20031;-41
2022/01/13 07:53:48;;;;;;;21.98;11.68;;;;;;;-3.16;65.09;94822.94;5101505;28;20035;-41
2022/01/13 07:56:14;;;;;;;25.40;10.55;;;;;;;-2.27;62.88;94826.59;5110866;28;20032;-41
2022/01/13 07:58:40;;;;;;;25.30;11.57;;;;;;;-1.59;59.45;94832.13;5110386;28;20054;-41
2022/01/13 08:01:06;;;;;;;19.23;10.60;;;;;;;-1.40;58.64;94843.88;5110535;28;20435;-40
2022/01/13 08:03:32;;;;;;;20.67;11.10;;;;;;;-1.38;58.35;94847.69;5110512;28;20050;-41
2022/01/13 08:05:58;;;;;;;19.48;10.27;;;;;;;-1.50;57.61;94839.59;5109344;28;20024;-41
2022/01/13 08:08:24;;;;;;;19.02;9.85;;;;;;;-1.50;57.67;94856.59;5114065;28;20043;-41
2022/01/13 08:10:50;;;;;;;15.25;9.68;;;;;;;-1.78;58.27;94865.63;5114079;28;20031;-41
2022/01/13 08:13:15;;;;;;;21.00;11.77;;;;;;;-2.13;60.01;94862.06;5114052;28;20020;-41
2022/01/13 08:15:41;;;;;;;20.17;8.93;;;;;;;-2.42;60.11;94858.69;5106917;28;20073;-40
2022/01/13 08:20:55;;;;;;;26.63;15.90;;;;;;;-2.53;62.17;94848.19;5073802;28;20424;-40
2022/01/13 08:23:21;;;;;;;21.50;11.25;;;;;;;-2.43;61.88;94851.78;5093758;28;20039;-41
2022/01/13 08:25:46;;;;;;;22.15;12.15;;;;;;;-2.43;61.88;94846.38;5092303;28;20452;-41
2022/01/13 08:28:12;;;;;;;19.42;11.15;;;;;;;-2.50;61.98;94857.38;5093249;28;20035;-40
2022/01/13 08:30:37;;;;;;;19.30;9.70;;;;;;;-2.59;61.63;94865.38;5093714;28;20020;-41
2022/01/13 08:33:03;;;;;;;24.05;12.10;;;;;;;-2.55;62.85;94866.03;5093242;28;20016;-41
2022/01/13 08:35:28;;;;;;;20.35;11.38;;;;;;;-2.83;63.41;94851.38;5093294;28;20496;-41
2022/01/13 08:37:54;;;;;;;25.40;13.27;;;;;;;-2.78;62.17;94850.84;5093105;28;20109;-40
2022/01/13 08:40:20;;;;;;;24.70;11.55;;;;;;;-2.89;62.76;94849.63;5093501;28;20024;-41
2022/01/13 08:42:45;;;;;;;20.00;11.93;;;;;;;-2.62;63.05;94850.75;5093426;28;20054;-40
2022/01/13 08:45:12;;;;;;;23.45;15.02;;;;;;;-2.68;62.14;94852.47;5093357;28;20027;-41
2022/01/13 08:47:38;;;;;;;19.63;10.70;;;;;;;-2.78;62.21;94858.97;5092981;28;20015;-41
2022/01/13 08:50:07;;;;;;;18.67;10.20;;;;;;;-2.65;62.00;94861.69;5104451;28;20030;-41
2022/01/13 08:52:33;;;;;;;19.35;10.40;;;;;;;-2.52;62.02;94865.16;5113551;28;20020;-41
2022/01/13 08:54:59;;;;;;;20.85;10.15;;;;;;;-2.25;61.91;94857.41;5113278;28;20531;-41
2022/01/13 08:57:25;;;;;;;16.13;9.35;;;;;;;-2.07;60.60;94856.88;5113174;28;20019;-41
2022/01/13 08:59:51;;;;;;;18.98;11.07;;;;;;;-1.85;60.47;94855.78;5113136;28;20015;-41
2022/01/13 09:02:16;;;;;;;18.23;10.10;;;;;;;-1.79;59.04;94866.81;5113094;27;20023;-41
2022/01/13 09:04:42;;;;;;;17.67;8.98;;;;;;;-0.95;57.57;94858.56;5113045;28;20027;-42
2022/01/13 09:07:07;;;;;;;20.65;10.40;;;;;;;-0.43;55.87;94862.53;5113306;28;20035;-41
2022/01/13 09:09:34;;;;;;;18.17;8.55;;;;;;;-0.69;54.47;94855.75;5113191;28;20015;-41
2022/01/13 09:12:00;;;;;;;12.32;7.93;;;;;;;-0.58;54.26;94864.25;5113302;28;20024;-41
2022/01/13 09:14:27;;;;;;;26.50;13.10;;;;;;;-0.79;54.81;94857.66;5112852;28;20102;-41
2022/01/13 09:16:53;;;;;;;22.48;12.63;;;;;;;-0.72;54.08;94876.38;5095209;27;20044;-41
2022/01/13 09:19:19;;;;;;;33.17;15.57;;;;;;;-0.88;54.39;94874.59;5092419;28;20032;-41
2022/01/13 09:21:47;;;;;;;22.77;12.50;;;;;;;-0.72;54.31;94870.97;5092328;28;20081;-41
2022/01/13 09:24:17;;;;;;;22.50;11.98;;;;;;;-0.74;53.78;94862.50;5092871;28;20020;-41
2022/01/13 09:26:44;;;;;;;26.00;13.50;;;;;;;-0.31;54.37;94843.47;5092237;28;20016;-41
2022/01/13 09:29:10;;;;;;;18.00;10.63;;;;;;;0.06;51.87;94854.50;5092177;28;20221;-41
2022/01/13 09:31:38;;;;;;;26.83;13.50;;;;;;;-0.03;52.26;94845.13;5092183;28;20016;-41
2022/01/13 09:34:04;;;;;;;26.15;13.60;;;;;;;-0.19;52.57;94831.75;5092332;28;20027;-41
2022/01/13 09:36:31;;;;;;;22.27;12.50;;;;;;;-0.31;52.18;94819.06;5092463;28;20081;-41
2022/01/13 09:39:01;;;;;;;21.60;13.15;;;;;;;-0.36;52.49;94825.06;5092247;28;20450;-41
2022/01/13 09:41:30;;;;;;;21.27;12.02;;;;;;;-0.59;52.90;94822.81;5092038;28;20524;-41
2022/01/13 09:43:56;;;;;;;17.70;10.77;;;;;;;-0.73;53.04;94828.00;5092198;28;20447;-41
2022/01/13 09:46:26;;;;;;;22.50;10.70;;;;;;;-0.70;52.95;94825.16;5103894;28;20024;-41
2022/01/13 09:48:51;;;;;;;18.77;11.27;;;;;;;-0.76;53.78;94826.94;5112406;28;20411;-42
2022/01/13 09:51:17;;;;;;;18.65;10.50;;;;;;;-0.95;54.28;94817.91;5112123;28;20110;-41
2022/01/13 09:53:42;;;;;;;20.13;11.02;;;;;;;-0.95;55.42;94817.91;5112376;28;20051;-41
2022/01/13 09:56:08;;;;;;;28.77;15.15;;;;;;;-0.86;55.10;94817.97;5112064;28;20015;-40
2022/01/13 09:58:34;;;;;;;24.48;13.50;;;;;;;-0.70;54.58;94811.59;5111957;28;20026;-41
2022/01/13 10:00:59;;;;;;;23.35;12.73;;;;;;;-0.55;54.64;94796.31;5112257;28;20031;-41
2022/01/13 10:03:26;;;;;;;22.98;12.50;;;;;;;-0.38;54.28;94778.63;5111922;28;20477;-41
2022/01/13 10:05:54;;;;;;;21.50;11.15;;;;;;;0.08;53.19;94776.81;5112139;28;20016;-41
2022/01/13 10:08:21;;;;;;;58.97;26.40;;;;;;;0.42;52.51;94786.69;5112037;28;20480;-41
2022/01/13 10:10:47;;;;;;;31.52;17.15;;;;;;;0.44;52.17;94786.97;5112067;28;20046;-42
2022/01/13 10:13:22;;;;;;;26.92;14.23;;;;;;;0.31;50.76;94784.41;5111687;27;20041;-41
2022/01/13 10:18:44;;;;;;;21.55;11.95;;;;;;;0.68;49.87;94774.31;5091274;28;20136;-41
2022/01/13 10:21:18;;;;;;;19.05;9.45;;;;;;;0.74;49.92;94770.56;5091488;28;20030;-41
2022/01/13 10:24:09;;;;;;;23.88;9.73;;;;;;;0.93;48.28;94776.75;5091519;28;20023;-41
2022/01/13 10:26:35;;;;;;;23.75;8.57;;;;;;;0.65;47.96;94783.41;5091710;28;20024;-41
2022/01/13 10:29:01;;;;;;;17.40;10.98;;;;;;;0.87;47.35;94770.41;5090193;28;20552;-41
2022/01/13 10:32:02;;;;;;;18.17;9.15;;;;;;;1.48;46.73;94758.34;5091368;28;20145;-41
2022/01/13 10:34:28;;;;;;;15.98;8.15;;;;;;;2.64;43.69;94763.66;5048348;28;20498;-41
2022/01/13 10:37:05;;;;;;;15.15;9.13;;;;;;;3.11;42.25;94762.06;5082275;28;20028;-40
2022/01/13 10:39:48;;;;;;;16.70;10.45;;;;;;;3.52;40.25;94761.81;5090903;28;20162;-41
2022/01/13 10:45:00;;;;;;;16.92;8.90;;;;;;;4.16;39.51;94731.75;5089369;28;20130;-41
2022/01/13 10:47:27;;;;;;;21.42;12.27;;;;;;;4.03;39.66;94736.78;5111415;28;20050;-41
2022/01/13 10:49:53;;;;;;;17.45;9.45;;;;;;;4.63;38.11;94727.91;5111203;28;20048;-41
2022/01/13 10:52:24;;;;;;;15.68;9.38;;;;;;;5.03;37.17;94732.56;5110070;28;20055;-41
2022/01/13 10:55:03;;;;;;;19.83;10.15;;;;;;;5.59;35.63;94737.34;5111353;28;20150;-41
2022/01/13 10:57:29;;;;;;;17.05;9.63;;;;;;;5.31;36.79;94736.34;5111001;28;20023;-41
2022/01/13 10:59:55;;;;;;;19.55;9.88;;;;;;;5.58;36.46;94735.84;5110871;27;20112;-41
2022/01/13 11:02:21;;;;;;;16.08;10.00;;;;;;;6.22;34.29;94731.84;5111185;28;20102;-42
2022/01/13 11:04:47;;;;;;;16.45;9.55;;;;;;;6.74;34.21;94739.38;5111139;28;20492;-42
2022/01/13 11:07:25;;;;;;;15.63;8.82;;;;;;;6.90;33.11;94740.69;5110795;28;20026;-42
2022/01/13 11:09:56;;;;;;;18.17;9.63;;;;;;;7.29;31.70;94738.06;5110706;28;20040;-42
2022/01/13 11:12:38;;;;;;;21.10;10.45;;;;;;;7.42;32.00;94744.59;5110847;28;20501;-42
2022/01/13 11:15:07;;;;;;;14.93;9.93;;;;;;;7.23;33.43;94743.56;5108738;28;20110;-42
2022/01/13 11:17:37;;;;;;;17.80;10.27;;;;;;;7.62;32.22;94735.38;5090248;28;20048;-42
2022/01/13 11:20:08;;;;;;;15.40;9.38;;;;;;;7.39;31.83;94731.06;5090559;28;20039;-42
2022/01/13 11:22:37;;;;;;;16.25;10.25;;;;;;;7.51;32.10;94733.34;5090239;28;20020;-42
2022/01/13 11:25:03;;;;;;;;;;;;;;;7.57;32.52;94736.88;5091144;28;20020;-42
2022/01/13 11:27:29;;;;;;;13.90;8.90;;;;;;;7.46;32.12;94731.34;5090259;28;19908;-42
2022/01/13 11:29:55;;;;;;;17.15;9.32;;;;;;;7.54;31.17;94740.59;5090417;28;20020;-41
2022/01/13 11:32:21;;;;;;;14.23;8.98;;;;;;;7.27;31.81;94735.81;5090244;28;20089;-41
2022/01/13 11:34:47;;;;;;;14.63;9.48;;;;;;;7.22;32.22;94720.06;5090179;28;20073;-41
2022/01/13 11:37:13;;;;;;;15.80;9.57;;;;;;;7.11;31.69;94725.53;5090515;28;20023;-41
2022/01/13 11:39:41;;;;;;;15.38;9.68;;;;;;;7.06;31.85;94726.25;5107498;28;20023;-42
2022/01/13 11:42:09;;;;;;;13.80;8.85;;;;;;;7.01;31.76;94707.78;5114402;28;20106;-41
2022/01/13 11:44:36;;;;;;;15.40;10.48;;;;;;;6.95;32.79;94711.75;5114597;28;20027;-41
2022/01/13 11:47:08;;;;;;;14.30;9.45;;;;;;;6.73;33.07;94718.69;5114847;28;20463;-40
2022/01/13 11:50:18;;;;;;;14.45;9.43;;;;;;;6.68;32.65;94724.88;5113313;28;20026;-41
2022/01/13 11:52:51;;;;;;;15.38;9.00;;;;;;;6.32;33.21;94713.97;5111395;28;20032;-42
2022/01/13 11:55:32;;;;;;;14.77;9.85;;;;;;;6.66;32.27;94719.13;5114524;28;20020;-41